createdAt,value
2017-06-28T00:00:37.311Z,17.7
2017-06-28T00:01:38.618Z,17.66
2017-06-28T00:02:39.898Z,17.59
2017-06-28T00:03:41.369Z,17.64
2017-06-28T00:04:42.688Z,17.55
2017-06-28T00:05:44.119Z,17.63
2017-06-28T00:06:45.379Z,17.54
2017-06-28T00:07:46.688Z,17.59
2017-06-28T00:08:47.949Z,17.54
2017-06-28T00:09:49.450Z,17.5
2017-06-28T00:10:50.744Z,17.48
2017-06-28T00:11:51.996Z,17.47
2017-06-28T00:12:53.214Z,17.46
2017-06-28T00:13:54.470Z,17.48
2017-06-28T00:14:55.722Z,17.46
2017-06-28T00:15:57.086Z,17.47
2017-06-28T00:16:58.615Z,17.47
2017-06-28T00:17:59.874Z,17.47
2017-06-28T00:19:01.151Z,17.47
2017-06-28T00:20:02.502Z,17.43
2017-06-28T00:21:03.867Z,17.4
2017-06-28T00:22:05.084Z,17.41
2017-06-28T00:23:06.521Z,17.44
2017-06-28T00:24:07.800Z,17.38
2017-06-28T00:25:09.313Z,17.36
2017-06-28T00:26:10.560Z,17.41
2017-06-28T00:27:11.919Z,17.43
2017-06-28T00:28:13.144Z,17.43
2017-06-28T00:29:14.395Z,17.4
2017-06-28T00:30:15.704Z,17.29
2017-06-28T00:31:17.076Z,17.36
2017-06-28T00:32:18.534Z,17.38
2017-06-28T00:33:19.813Z,17.4
2017-06-28T00:34:21.050Z,17.3
2017-06-28T00:35:22.360Z,17.35
2017-06-28T00:36:23.629Z,17.3
2017-06-28T00:37:24.886Z,17.26
2017-06-28T00:38:26.158Z,17.26
2017-06-28T00:39:27.473Z,17.26
2017-06-28T00:40:28.700Z,17.28
2017-06-28T00:41:30.090Z,17.26
2017-06-28T00:42:31.322Z,17.36
2017-06-28T00:43:32.615Z,17.25
2017-06-28T00:44:34.018Z,17.22
2017-06-28T00:45:35.295Z,17.26
2017-06-28T00:46:36.641Z,17.17
2017-06-28T00:47:37.982Z,17.22
2017-06-28T00:48:39.214Z,17.26
2017-06-28T00:49:40.790Z,17.13
2017-06-28T00:50:42.025Z,17.18
2017-06-28T00:51:43.266Z,17.28
2017-06-28T00:52:44.533Z,17.17
2017-06-28T00:53:45.799Z,17.22
2017-06-28T00:54:47.142Z,17.2
2017-06-28T00:55:48.389Z,17.13
2017-06-28T00:56:49.683Z,17.17
2017-06-28T00:57:50.896Z,17.1
2017-06-28T00:58:52.192Z,17.1
2017-06-28T00:59:53.418Z,17.17
2017-06-28T01:00:54.689Z,17.18
2017-06-28T01:01:55.964Z,17.2
2017-06-28T01:02:57.222Z,17.14
2017-06-28T01:03:58.550Z,17.14
2017-06-28T01:04:59.841Z,17.13
2017-06-28T01:06:01.082Z,17.13
2017-06-28T01:07:02.411Z,17.13
2017-06-28T01:08:03.718Z,17.06
2017-06-28T01:09:04.973Z,17.04
2017-06-28T01:10:06.238Z,17.08
2017-06-28T01:11:07.497Z,17.06
2017-06-28T01:12:08.784Z,17.1
2017-06-28T01:13:10.089Z,17.14
2017-06-28T01:14:11.416Z,17.06
2017-06-28T01:15:12.655Z,17.08
2017-06-28T01:16:13.914Z,17.13
2017-06-28T01:17:15.183Z,17.11
2017-06-28T01:18:16.464Z,17.13
2017-06-28T01:19:17.725Z,17.13
2017-06-28T01:20:18.973Z,17.07
2017-06-28T01:21:20.239Z,17.07
2017-06-28T01:22:21.494Z,17.13
2017-06-28T01:23:22.975Z,17.14
2017-06-28T01:24:24.263Z,17.14
2017-06-28T01:25:25.550Z,17.15
2017-06-28T01:26:26.774Z,17.13
2017-06-28T01:27:28.058Z,17.13
2017-06-28T01:28:29.322Z,17.13
2017-06-28T01:29:30.561Z,17.14
2017-06-28T01:30:31.901Z,17.13
2017-06-28T01:31:33.178Z,17.04
2017-06-28T01:32:34.426Z,17.03
2017-06-28T01:33:35.717Z,17.03
2017-06-28T01:34:36.964Z,17.1
2017-06-28T01:35:38.376Z,17.04
2017-06-28T01:36:39.543Z,17.07
2017-06-28T01:37:41.084Z,17.08
2017-06-28T01:38:42.372Z,17.04
2017-06-28T01:39:43.638Z,17.03
2017-06-28T01:40:45.023Z,17.06
2017-06-28T01:41:46.310Z,17.11
2017-06-28T01:42:47.595Z,17.08
2017-06-28T01:43:48.888Z,17.1
2017-06-28T01:44:50.185Z,17.04
2017-06-28T01:45:51.452Z,17.06
2017-06-28T01:46:52.756Z,17.06
2017-06-28T01:47:54.026Z,17.06
2017-06-28T01:48:55.321Z,17.06
2017-06-28T01:49:56.608Z,17.07
2017-06-28T01:50:57.889Z,17.04
2017-06-28T01:51:59.207Z,17.04
2017-06-28T01:53:00.695Z,17.08
2017-06-28T01:54:01.956Z,17
2017-06-28T01:55:03.255Z,17
2017-06-28T01:56:04.571Z,16.99
2017-06-28T01:57:05.913Z,17.04
2017-06-28T01:58:07.207Z,17.07
2017-06-28T01:59:08.515Z,17.04
2017-06-28T02:00:09.954Z,17.06
2017-06-28T02:01:11.235Z,17.14
2017-06-28T02:02:12.524Z,17.11
2017-06-28T02:03:13.829Z,17.06
2017-06-28T02:04:15.159Z,17.07
2017-06-28T02:05:16.419Z,17
2017-06-28T02:06:17.726Z,17.04
2017-06-28T02:07:19.061Z,17.18
2017-06-28T02:08:20.273Z,17.13
2017-06-28T02:09:21.568Z,17.14
2017-06-28T02:10:22.831Z,17.13
2017-06-28T02:11:24.125Z,17.1
2017-06-28T02:12:25.392Z,17.11
2017-06-28T02:13:26.777Z,17.14
2017-06-28T02:14:28.081Z,17.13
2017-06-28T02:15:29.391Z,17.08
2017-06-28T02:16:30.657Z,17.11
2017-06-28T02:17:31.949Z,17.2
2017-06-28T02:18:33.236Z,17.25
2017-06-28T02:19:34.566Z,17.22
2017-06-28T02:20:35.940Z,17.23
2017-06-28T02:21:37.307Z,17.2
2017-06-28T02:22:38.613Z,17.33
2017-06-28T02:23:39.907Z,17.3
2017-06-28T02:24:41.189Z,17.18
2017-06-28T02:25:42.491Z,17.32
2017-06-28T02:26:43.771Z,17.26
2017-06-28T02:27:45.072Z,17.28
2017-06-28T02:28:46.346Z,17.35
2017-06-28T02:29:47.636Z,17.33
2017-06-28T02:30:48.911Z,17.23
2017-06-28T02:31:50.207Z,17.23
2017-06-28T02:32:51.489Z,17.3
2017-06-28T02:33:52.812Z,17.29
2017-06-28T02:34:54.161Z,17.35
2017-06-28T02:35:55.458Z,17.4
2017-06-28T02:36:56.703Z,17.4
2017-06-28T02:37:57.933Z,17.33
2017-06-28T02:38:59.217Z,17.38
2017-06-28T02:40:00.534Z,17.41
2017-06-28T02:41:01.765Z,17.35
2017-06-28T02:42:03.150Z,17.4
2017-06-28T02:43:04.531Z,17.32
2017-06-28T02:44:05.788Z,17.38
2017-06-28T02:45:07.094Z,17.33
2017-06-28T02:46:08.424Z,17.35
2017-06-28T02:47:09.719Z,17.32
2017-06-28T02:48:11.088Z,17.28
2017-06-28T02:49:12.436Z,17.4
2017-06-28T02:50:13.704Z,17.33
2017-06-28T02:51:14.995Z,17.29
2017-06-28T02:52:16.450Z,17.3
2017-06-28T02:53:17.675Z,17.38
2017-06-28T02:54:18.947Z,17.4
2017-06-28T02:55:20.231Z,17.4
2017-06-28T02:56:21.530Z,17.41
2017-06-28T02:57:22.845Z,17.48
2017-06-28T02:58:24.166Z,17.44
2017-06-28T02:59:25.453Z,17.44
2017-06-28T03:00:26.728Z,17.38
2017-06-28T03:01:28.077Z,17.5
2017-06-28T03:02:29.348Z,17.47
2017-06-28T03:03:30.643Z,17.41
2017-06-28T03:04:31.881Z,17.46
2017-06-28T03:05:33.228Z,17.46
2017-06-28T03:06:34.551Z,17.4
2017-06-28T03:07:35.847Z,17.46
2017-06-28T03:08:37.119Z,17.47
2017-06-28T03:09:38.433Z,17.44
2017-06-28T03:10:39.697Z,17.46
2017-06-28T03:11:40.961Z,17.47
2017-06-28T03:12:42.244Z,17.43
2017-06-28T03:13:43.496Z,17.5
2017-06-28T03:14:44.757Z,17.47
2017-06-28T03:15:46.249Z,17.47
2017-06-28T03:16:47.454Z,17.48
2017-06-28T03:17:48.731Z,17.55
2017-06-28T03:18:49.980Z,17.57
2017-06-28T03:19:51.246Z,17.63
2017-06-28T03:20:52.650Z,17.64
2017-06-28T03:21:54.010Z,17.59
2017-06-28T03:22:55.189Z,17.63
2017-06-28T03:23:56.498Z,17.66
2017-06-28T03:24:57.805Z,17.63
2017-06-28T03:25:59.094Z,17.76
2017-06-28T03:27:00.347Z,17.78
2017-06-28T03:28:01.602Z,17.76
2017-06-28T03:29:02.845Z,17.81
2017-06-28T03:30:04.130Z,17.87
2017-06-28T03:31:05.359Z,17.79
2017-06-28T03:32:06.640Z,17.95
2017-06-28T03:33:07.965Z,17.85
2017-06-28T03:34:09.243Z,17.78
2017-06-28T03:35:10.510Z,17.82
2017-06-28T03:36:11.781Z,17.91
2017-06-28T03:37:13.033Z,17.91
2017-06-28T03:38:14.299Z,17.92
2017-06-28T03:39:15.652Z,17.94
2017-06-28T03:40:17.006Z,17.85
2017-06-28T03:41:18.284Z,17.92
2017-06-28T03:42:19.554Z,17.97
2017-06-28T03:43:20.899Z,17.97
2017-06-28T03:44:22.212Z,18.07
2017-06-28T03:45:23.437Z,18.1
2017-06-28T03:46:24.694Z,18.04
2017-06-28T03:47:25.954Z,18.03
2017-06-28T03:48:27.197Z,18.15
2017-06-28T03:49:28.450Z,18.13
2017-06-28T03:50:29.741Z,18.13
2017-06-28T03:51:31.056Z,18.13
2017-06-28T03:52:32.295Z,18.18
2017-06-28T03:53:33.562Z,18.19
2017-06-28T03:54:34.818Z,18.22
2017-06-28T03:55:36.086Z,18.21
2017-06-28T03:56:37.379Z,18.18
2017-06-28T03:57:38.644Z,18.21
2017-06-28T03:58:39.980Z,18.24
2017-06-28T03:59:41.275Z,18.28
2017-06-28T04:00:42.521Z,18.29
2017-06-28T04:01:43.788Z,18.28
2017-06-28T04:02:45.041Z,18.25
2017-06-28T04:03:46.339Z,18.31
2017-06-28T04:04:47.602Z,18.37
2017-06-28T04:05:48.890Z,18.36
2017-06-28T04:06:50.109Z,18.37
2017-06-28T04:07:51.354Z,18.43
2017-06-28T04:08:52.607Z,18.39
2017-06-28T04:09:53.858Z,18.44
2017-06-28T04:10:55.143Z,18.44
2017-06-28T04:11:56.404Z,18.46
2017-06-28T04:12:57.674Z,18.44
2017-06-28T04:13:58.923Z,18.34
2017-06-28T04:15:00.260Z,18.37
2017-06-28T04:16:01.504Z,18.43
2017-06-28T04:17:02.882Z,18.4
2017-06-28T04:18:04.109Z,18.37
2017-06-28T04:19:05.386Z,18.47
2017-06-28T04:20:06.677Z,18.43
2017-06-28T04:21:07.954Z,18.47
2017-06-28T04:22:09.213Z,18.46
2017-06-28T04:23:10.463Z,18.46
2017-06-28T04:24:11.712Z,18.47
2017-06-28T04:25:13.252Z,18.58
2017-06-28T04:26:14.563Z,18.43
2017-06-28T04:27:15.840Z,18.64
2017-06-28T04:28:17.187Z,18.55
2017-06-28T04:29:18.497Z,18.62
2017-06-28T04:30:19.807Z,18.57
2017-06-28T04:31:21.180Z,18.62
2017-06-28T04:32:22.479Z,18.62
2017-06-28T04:33:23.784Z,18.64
2017-06-28T04:34:25.291Z,18.62
2017-06-28T04:35:26.554Z,18.68
2017-06-28T04:36:27.821Z,18.68
2017-06-28T04:37:29.126Z,18.72
2017-06-28T04:38:30.467Z,18.65
2017-06-28T04:39:31.730Z,18.7
2017-06-28T04:40:33.064Z,18.72
2017-06-28T04:41:34.379Z,18.79
2017-06-28T04:42:35.689Z,18.8
2017-06-28T04:43:36.986Z,18.84
2017-06-28T04:44:38.283Z,18.95
2017-06-28T04:45:39.555Z,18.94
2017-06-28T04:46:40.983Z,18.92
2017-06-28T04:47:42.351Z,18.91
2017-06-28T04:48:43.601Z,18.91
2017-06-28T04:49:45.203Z,18.83
2017-06-28T04:50:46.419Z,18.91
2017-06-28T04:51:47.742Z,18.83
2017-06-28T04:52:49.024Z,18.86
2017-06-28T04:53:50.375Z,18.87
2017-06-28T04:54:51.607Z,18.91
2017-06-28T04:55:52.878Z,18.95
2017-06-28T04:56:54.127Z,18.91
2017-06-28T04:57:55.429Z,18.99
2017-06-28T04:58:56.733Z,18.97
2017-06-28T04:59:58.044Z,19.05
2017-06-28T05:00:59.334Z,19.14
2017-06-28T05:02:00.594Z,19.17
2017-06-28T05:03:01.909Z,19.17
2017-06-28T05:04:03.204Z,19.13
2017-06-28T05:05:04.669Z,19.24
2017-06-28T05:06:05.905Z,19.23
2017-06-28T05:07:07.184Z,19.21
2017-06-28T05:08:08.481Z,19.28
2017-06-28T05:09:09.754Z,19.24
2017-06-28T05:10:11.064Z,19.21
2017-06-28T05:11:12.318Z,19.13
2017-06-28T05:12:13.564Z,19.2
2017-06-28T05:13:14.831Z,19.2
2017-06-28T05:14:16.127Z,19.25
2017-06-28T05:15:17.394Z,19.11
2017-06-28T05:16:18.791Z,19.14
2017-06-28T05:17:20.054Z,19.13
2017-06-28T05:18:21.340Z,19.15
2017-06-28T05:19:22.671Z,19.17
2017-06-28T05:20:24.121Z,19.15
2017-06-28T05:21:25.385Z,18.98
2017-06-28T05:22:26.681Z,19.02
2017-06-28T05:23:27.997Z,19.05
2017-06-28T05:24:29.195Z,19.02
2017-06-28T05:25:30.560Z,19.05
2017-06-28T05:26:31.897Z,19.02
2017-06-28T05:27:33.200Z,18.99
2017-06-28T05:28:34.454Z,18.95
2017-06-28T05:29:35.718Z,18.98
2017-06-28T05:30:36.996Z,18.95
2017-06-28T05:31:38.268Z,18.98
2017-06-28T05:32:39.577Z,18.91
2017-06-28T05:33:40.857Z,18.95
2017-06-28T05:34:42.121Z,18.87
2017-06-28T05:35:43.384Z,18.94
2017-06-28T05:36:44.685Z,18.87
2017-06-28T05:37:45.946Z,18.86
2017-06-28T05:38:47.235Z,18.91
2017-06-28T05:39:48.556Z,18.9
2017-06-28T05:40:49.827Z,18.8
2017-06-28T05:41:51.154Z,18.87
2017-06-28T05:42:52.540Z,18.74
2017-06-28T05:43:53.829Z,18.73
2017-06-28T05:44:55.247Z,18.64
2017-06-28T05:45:56.532Z,18.74
2017-06-28T05:46:57.874Z,18.77
2017-06-28T05:47:59.166Z,18.77
2017-06-28T05:49:00.562Z,18.76
2017-06-28T05:50:01.989Z,18.87
2017-06-28T05:51:03.156Z,18.9
2017-06-28T05:52:04.411Z,18.95
2017-06-28T05:53:05.662Z,18.99
2017-06-28T05:54:06.952Z,18.97
2017-06-28T05:55:08.268Z,19.06
2017-06-28T05:56:09.553Z,19.05
2017-06-28T05:57:10.869Z,18.99
2017-06-28T05:58:12.123Z,18.99
2017-06-28T05:59:13.409Z,18.97
2017-06-28T06:00:14.667Z,18.94
2017-06-28T06:01:15.949Z,18.95
2017-06-28T06:02:17.209Z,19.01
2017-06-28T06:03:18.475Z,18.94
2017-06-28T06:04:19.712Z,18.87
2017-06-28T06:05:20.990Z,18.84
2017-06-28T06:06:22.263Z,18.87
2017-06-28T06:07:23.592Z,18.9
2017-06-28T06:08:24.868Z,18.87
2017-06-28T06:09:26.155Z,18.92
2017-06-28T06:10:27.421Z,18.82
2017-06-28T06:11:28.745Z,18.97
2017-06-28T06:12:30.094Z,19.1
2017-06-28T06:13:31.326Z,19.13
2017-06-28T06:14:32.603Z,19.13
2017-06-28T06:15:33.930Z,19.29
2017-06-28T06:16:35.223Z,19.39
2017-06-28T06:17:36.694Z,19.43
2017-06-28T06:18:37.978Z,19.48
2017-06-28T06:19:39.208Z,19.65
2017-06-28T06:20:40.489Z,19.75
2017-06-28T06:21:41.790Z,19.94
2017-06-28T06:22:43.086Z,20.08
2017-06-28T06:23:44.363Z,20.18
2017-06-28T06:24:45.597Z,20.41
2017-06-28T06:25:46.936Z,20.49
2017-06-28T06:26:48.173Z,20.58
2017-06-28T06:27:49.444Z,20.64
2017-06-28T06:28:50.769Z,20.76
2017-06-28T06:29:52.211Z,20.89
2017-06-28T06:30:53.456Z,20.95
2017-06-28T06:31:54.729Z,21.04
2017-06-28T06:32:56.008Z,21.19
2017-06-28T06:33:57.215Z,21.11
2017-06-28T06:34:58.506Z,20.99
2017-06-28T06:35:59.807Z,20.71
2017-06-28T06:37:01.091Z,20.49
2017-06-28T06:38:02.383Z,20.16
2017-06-28T06:39:03.678Z,19.98
2017-06-28T06:40:05.025Z,19.75
2017-06-28T06:41:06.381Z,19.58
2017-06-28T06:42:07.675Z,19.57
2017-06-28T06:43:08.975Z,19.63
2017-06-28T06:44:10.264Z,19.53
2017-06-28T06:45:11.562Z,19.47
2017-06-28T06:46:12.891Z,19.43
2017-06-28T06:47:14.154Z,19.57
2017-06-28T06:48:15.445Z,19.65
2017-06-28T06:49:16.736Z,19.69
2017-06-28T06:50:18.015Z,19.76
2017-06-28T06:51:19.274Z,19.84
2017-06-28T06:52:20.549Z,19.86
2017-06-28T06:53:22.066Z,19.98
2017-06-28T06:54:23.366Z,19.97
2017-06-28T06:55:24.672Z,20.05
2017-06-28T06:56:25.969Z,20.18
2017-06-28T06:57:27.231Z,20.1
2017-06-28T06:58:28.561Z,20.15
2017-06-28T06:59:30.033Z,20.13
2017-06-28T07:00:31.342Z,20.15
2017-06-28T07:01:32.602Z,20.13
2017-06-28T07:02:33.927Z,20.2
2017-06-28T07:03:35.198Z,20.23
2017-06-28T07:04:36.503Z,20.28
2017-06-28T07:05:37.738Z,20.35
2017-06-28T07:06:39.014Z,20.41
2017-06-28T07:07:40.268Z,20.54
2017-06-28T07:08:41.589Z,20.62
2017-06-28T07:09:42.843Z,20.59
2017-06-28T07:10:44.152Z,20.64
2017-06-28T07:11:45.394Z,20.77
2017-06-28T07:12:46.800Z,20.8
2017-06-28T07:13:48.078Z,20.89
2017-06-28T07:14:49.378Z,20.77
2017-06-28T07:15:50.637Z,20.83
2017-06-28T07:16:51.908Z,20.95
2017-06-28T07:17:53.230Z,20.91
2017-06-28T07:18:54.571Z,20.98
2017-06-28T07:19:55.914Z,20.93
2017-06-28T07:20:57.212Z,20.83
2017-06-28T07:21:58.505Z,20.76
2017-06-28T07:22:59.774Z,20.72
2017-06-28T07:24:01.237Z,20.96
2017-06-28T07:25:02.542Z,21.19
2017-06-28T07:26:03.865Z,21.21
2017-06-28T07:27:05.178Z,21.38
2017-06-28T07:28:06.511Z,21.46
2017-06-28T07:29:07.765Z,21.71
2017-06-28T07:30:09.074Z,21.75
2017-06-28T07:31:10.508Z,21.83
2017-06-28T07:32:11.803Z,21.91
2017-06-28T07:33:13.076Z,22.04
2017-06-28T07:34:14.357Z,22.2
2017-06-28T07:35:15.606Z,22.06
2017-06-28T07:36:16.897Z,22.01
2017-06-28T07:37:18.201Z,21.98
2017-06-28T07:38:19.477Z,22.07
2017-06-28T07:39:20.858Z,22.06
2017-06-28T07:40:22.201Z,22.17
2017-06-28T07:41:23.444Z,22.38
2017-06-28T07:42:24.751Z,22.53
2017-06-28T07:43:25.999Z,22.57
2017-06-28T07:44:27.253Z,22.62
2017-06-28T07:45:28.506Z,22.68
2017-06-28T07:46:29.802Z,22.74
2017-06-28T07:47:31.212Z,22.53
2017-06-28T07:48:32.675Z,22.49
2017-06-28T07:49:33.956Z,22.53
2017-06-28T07:50:35.273Z,22.53
2017-06-28T07:51:36.514Z,22.46
2017-06-28T07:52:37.752Z,22.62
2017-06-28T07:53:39.054Z,22.65
2017-06-28T07:54:40.308Z,22.6
2017-06-28T07:55:41.553Z,22.6
2017-06-28T07:56:42.817Z,22.5
2017-06-28T07:57:44.188Z,22.6
2017-06-28T07:58:45.520Z,22.57
2017-06-28T07:59:46.825Z,22.52
2017-06-28T08:00:48.069Z,22.56
2017-06-28T08:01:49.341Z,22.75
2017-06-28T08:02:50.630Z,22.83
2017-06-28T08:03:51.884Z,23.05
2017-06-28T08:04:53.144Z,23.15
2017-06-28T08:05:54.424Z,23.55
2017-06-28T08:06:55.670Z,23.62
2017-06-28T08:07:56.970Z,23.86
2017-06-28T08:08:58.292Z,24.07
2017-06-28T08:09:59.570Z,24.34
2017-06-28T08:11:00.910Z,24.39
2017-06-28T08:12:02.136Z,24.27
2017-06-28T08:13:03.428Z,24.23
2017-06-28T08:14:04.779Z,24.22
2017-06-28T08:15:06.043Z,24.17
2017-06-28T08:16:07.432Z,24.17
2017-06-28T08:17:08.737Z,24.12
2017-06-28T08:18:10.034Z,23.92
2017-06-28T08:19:11.290Z,23.85
2017-06-28T08:20:12.607Z,23.76
2017-06-28T08:21:13.881Z,23.77
2017-06-28T08:22:15.185Z,23.68
2017-06-28T08:23:16.456Z,23.77
2017-06-28T08:24:17.794Z,23.67
2017-06-28T08:25:19.156Z,23.71
2017-06-28T08:26:20.465Z,23.75
2017-06-28T08:27:21.740Z,23.55
2017-06-28T08:28:23.113Z,23.29
2017-06-28T08:29:24.404Z,23.17
2017-06-28T08:30:25.642Z,23.05
2017-06-28T08:31:26.992Z,23.02
2017-06-28T08:32:28.237Z,22.99
2017-06-28T08:33:29.514Z,22.99
2017-06-28T08:34:30.764Z,23.04
2017-06-28T08:35:32.024Z,23.12
2017-06-28T08:36:33.515Z,23.05
2017-06-28T08:37:34.815Z,23.15
2017-06-28T08:38:36.054Z,23.19
2017-06-28T08:39:37.284Z,23.14
2017-06-28T08:40:38.531Z,23.19
2017-06-28T08:41:39.783Z,23.23
2017-06-28T08:42:41.052Z,23.17
2017-06-28T08:43:42.338Z,22.99
2017-06-28T08:44:43.617Z,23.04
2017-06-28T08:45:44.893Z,23.05
2017-06-28T08:46:46.180Z,22.97
2017-06-28T08:47:47.412Z,23.15
2017-06-28T08:48:48.721Z,23.35
2017-06-28T08:49:49.981Z,23.43
2017-06-28T08:50:51.247Z,23.72
2017-06-28T08:51:52.599Z,23.7
2017-06-28T08:52:53.874Z,23.71
2017-06-28T08:53:55.133Z,23.7
2017-06-28T08:54:56.469Z,23.89
2017-06-28T08:55:57.918Z,23.79
2017-06-28T08:56:59.324Z,23.85
2017-06-28T08:58:00.633Z,23.95
2017-06-28T08:59:01.928Z,24
2017-06-28T09:00:03.191Z,24.02
2017-06-28T09:01:04.561Z,23.9
2017-06-28T09:02:05.855Z,24.05
2017-06-28T09:03:07.106Z,24.16
2017-06-28T09:04:08.426Z,24.39
2017-06-28T09:05:09.675Z,24.41
2017-06-28T09:06:10.941Z,24.47
2017-06-28T09:07:12.229Z,24.57
2017-06-28T09:08:13.676Z,24.64
2017-06-28T09:09:14.968Z,24.79
2017-06-28T09:10:16.253Z,24.85
2017-06-28T09:11:17.578Z,24.85
2017-06-28T09:12:18.819Z,24.9
2017-06-28T09:13:20.110Z,24.98
2017-06-28T09:14:21.449Z,25.27
2017-06-28T09:15:22.664Z,25.25
2017-06-28T09:16:23.945Z,25.3
2017-06-28T09:17:25.220Z,25.19
2017-06-28T09:18:26.546Z,25.27
2017-06-28T09:19:27.832Z,25.22
2017-06-28T09:20:29.155Z,25.28
2017-06-28T09:21:30.422Z,25.35
2017-06-28T09:22:31.699Z,25.46
2017-06-28T09:23:33.002Z,25.72
2017-06-28T09:24:34.432Z,26.05
2017-06-28T09:25:35.922Z,26.39
2017-06-28T09:26:37.222Z,26.68
2017-06-28T09:27:38.449Z,26.73
2017-06-28T09:28:39.765Z,26.86
2017-06-28T09:29:41.042Z,26.84
2017-06-28T09:30:42.335Z,27.06
2017-06-28T09:31:43.621Z,27.29
2017-06-28T09:32:44.957Z,27.36
2017-06-28T09:33:46.258Z,27.36
2017-06-28T09:34:47.668Z,27.42
2017-06-28T09:35:48.959Z,27.29
2017-06-28T09:36:50.281Z,27.32
2017-06-28T09:37:51.587Z,27.47
2017-06-28T09:38:52.982Z,27.42
2017-06-28T09:39:54.466Z,27.61
2017-06-28T09:40:55.724Z,27.5
2017-06-28T09:41:56.981Z,27.43
2017-06-28T09:42:58.270Z,27.46
2017-06-28T09:43:59.597Z,27.29
2017-06-28T09:45:00.865Z,26.94
2017-06-28T09:46:02.181Z,26.73
2017-06-28T09:47:03.444Z,26.57
2017-06-28T09:48:04.816Z,26.59
2017-06-28T09:49:06.112Z,26.58
2017-06-28T09:50:07.377Z,26.77
2017-06-28T09:51:08.697Z,26.92
2017-06-28T09:52:10.015Z,27.13
2017-06-28T09:53:11.256Z,27.21
2017-06-28T09:54:12.522Z,27.53
2017-06-28T09:55:13.798Z,27.8
2017-06-28T09:56:15.119Z,28.06
2017-06-28T09:57:16.464Z,28.38
2017-06-28T09:58:17.726Z,28.63
2017-06-28T09:59:19.048Z,28.6
2017-06-28T10:00:20.339Z,28.41
2017-06-28T10:01:21.654Z,28.35
2017-06-28T10:02:22.914Z,28.13
2017-06-28T10:03:24.243Z,27.95
2017-06-28T10:04:25.537Z,27.67
2017-06-28T10:05:26.910Z,27.47
2017-06-28T10:06:28.210Z,27.26
2017-06-28T10:07:29.456Z,27.31
2017-06-28T10:08:30.741Z,27.24
2017-06-28T10:09:31.998Z,26.96
2017-06-28T10:10:33.235Z,26.74
2017-06-28T10:11:34.521Z,26.64
2017-06-28T10:12:35.765Z,26.58
2017-06-28T10:13:37.033Z,26.49
2017-06-28T10:14:38.322Z,26.43
2017-06-28T10:15:39.625Z,26.39
2017-06-28T10:16:40.881Z,26.25
2017-06-28T10:17:42.168Z,26.05
2017-06-28T10:18:43.469Z,25.93
2017-06-28T10:19:44.978Z,25.87
2017-06-28T10:20:46.255Z,25.65
2017-06-28T10:21:47.544Z,25.35
2017-06-28T10:22:48.917Z,25.39
2017-06-28T10:23:50.175Z,25.31
2017-06-28T10:24:51.759Z,25.31
2017-06-28T10:25:53.194Z,25.39
2017-06-28T10:26:54.486Z,25.47
2017-06-28T10:27:55.765Z,25.39
2017-06-28T10:28:57.113Z,25.25
2017-06-28T10:29:58.509Z,25.17
2017-06-28T10:30:59.793Z,25.16
2017-06-28T10:32:01.143Z,25.16
2017-06-28T10:33:02.558Z,25.05
2017-06-28T10:34:03.834Z,24.98
2017-06-28T10:35:05.146Z,24.92
2017-06-28T10:36:06.626Z,24.73
2017-06-28T10:37:07.885Z,24.57
2017-06-28T10:38:09.166Z,24.47
2017-06-28T10:39:10.463Z,24.35
2017-06-28T10:40:11.909Z,24.31
2017-06-28T10:41:13.204Z,24.23
2017-06-28T10:42:14.567Z,24.24
2017-06-28T10:43:15.834Z,24.16
2017-06-28T10:44:17.228Z,23.9
2017-06-28T10:45:18.678Z,23.83
2017-06-28T10:46:19.943Z,23.61
2017-06-28T10:47:21.210Z,23.49
2017-06-28T10:48:22.542Z,23.2
2017-06-28T10:49:23.834Z,22.99
2017-06-28T10:50:25.155Z,22.8
2017-06-28T10:51:26.460Z,22.65
2017-06-28T10:52:27.771Z,22.44
2017-06-28T10:53:29.054Z,22.38
2017-06-28T10:54:30.297Z,22.41
2017-06-28T10:55:31.582Z,22.32
2017-06-28T10:56:32.852Z,22.28
2017-06-28T10:57:34.112Z,22.19
2017-06-28T10:58:35.382Z,22.02
2017-06-28T10:59:36.756Z,22.02
2017-06-28T11:00:38.119Z,21.98
2017-06-28T11:01:39.498Z,21.78
2017-06-28T11:02:40.781Z,21.74
2017-06-28T11:03:42.075Z,21.59
2017-06-28T11:04:43.327Z,21.44
2017-06-28T11:05:44.598Z,21.02
2017-06-28T11:06:45.931Z,20.68
2017-06-28T11:07:47.186Z,20.59
2017-06-28T11:08:48.464Z,20.39
2017-06-28T11:09:49.737Z,20.2
2017-06-28T11:10:51.057Z,20.1
2017-06-28T11:11:52.334Z,20
2017-06-28T11:12:53.617Z,19.9
2017-06-28T11:13:54.920Z,19.78
2017-06-28T11:14:56.249Z,19.79
2017-06-28T11:15:57.503Z,19.76
2017-06-28T11:16:58.895Z,19.75
2017-06-28T11:18:00.539Z,19.53
2017-06-28T11:19:01.707Z,19.53
2017-06-28T11:20:02.981Z,19.53
2017-06-28T11:21:04.294Z,19.53
2017-06-28T11:22:05.618Z,19.57
2017-06-28T11:23:06.917Z,19.53
2017-06-28T11:24:08.253Z,19.48
2017-06-28T11:25:09.502Z,19.36
2017-06-28T11:26:10.891Z,19.39
2017-06-28T11:27:12.268Z,19.35
2017-06-28T11:28:13.545Z,19.35
2017-06-28T11:29:14.835Z,19.43
2017-06-28T11:30:16.101Z,19.33
2017-06-28T11:31:17.434Z,19.33
2017-06-28T11:32:18.717Z,19.35
2017-06-28T11:33:19.996Z,19.33
2017-06-28T11:34:21.291Z,19.36
2017-06-28T11:35:22.594Z,19.31
2017-06-28T11:36:23.849Z,19.47
2017-06-28T11:37:25.176Z,19.48
2017-06-28T11:38:26.565Z,19.5
2017-06-28T11:39:27.828Z,19.61
2017-06-28T11:40:29.119Z,19.54
2017-06-28T11:41:30.734Z,19.53
2017-06-28T11:42:31.910Z,19.68
2017-06-28T11:43:33.230Z,19.6
2017-06-28T11:44:34.597Z,19.51
2017-06-28T11:45:35.897Z,19.61
2017-06-28T11:46:37.203Z,19.53
2017-06-28T11:47:38.504Z,19.55
2017-06-28T11:48:39.745Z,19.51
2017-06-28T11:49:41.007Z,19.55
2017-06-28T11:50:42.340Z,19.61
2017-06-28T11:51:43.624Z,19.69
2017-06-28T11:52:44.936Z,19.6
2017-06-28T11:53:46.192Z,19.65
2017-06-28T11:54:47.461Z,19.61
2017-06-28T11:55:48.800Z,19.58
2017-06-28T11:56:50.122Z,19.69
2017-06-28T11:57:51.406Z,19.66
2017-06-28T11:58:52.713Z,19.63
2017-06-28T11:59:53.980Z,19.7
2017-06-28T12:00:55.318Z,19.68
2017-06-28T12:01:56.723Z,19.66
2017-06-28T12:02:58.140Z,19.63
2017-06-28T12:03:59.315Z,19.63
2017-06-28T12:05:00.614Z,19.6
2017-06-28T12:06:01.889Z,19.65
2017-06-28T12:07:03.151Z,19.7
2017-06-28T12:08:04.420Z,19.66
2017-06-28T12:09:05.809Z,19.7
2017-06-28T12:10:07.105Z,19.76
2017-06-28T12:11:08.376Z,19.83
2017-06-28T12:12:09.702Z,19.83
2017-06-28T12:13:10.972Z,19.83
2017-06-28T12:14:12.247Z,19.79
2017-06-28T12:15:13.572Z,19.69
2017-06-28T12:16:14.925Z,19.72
2017-06-28T12:17:16.224Z,19.63
2017-06-28T12:18:17.709Z,19.72
2017-06-28T12:19:18.966Z,19.78
2017-06-28T12:20:20.291Z,19.79
2017-06-28T12:21:21.555Z,19.73
2017-06-28T12:22:22.901Z,19.86
2017-06-28T12:23:24.175Z,19.78
2017-06-28T12:24:25.890Z,19.79
2017-06-28T12:25:27.239Z,19.72
2017-06-28T12:26:28.551Z,19.73
2017-06-28T12:27:29.816Z,19.73
2017-06-28T12:28:31.185Z,19.6
2017-06-28T12:29:32.673Z,19.58
2017-06-28T12:30:33.934Z,19.65
2017-06-28T12:31:35.218Z,19.66
2017-06-28T12:32:36.513Z,19.72
2017-06-28T12:33:37.780Z,19.78
2017-06-28T12:34:39.049Z,19.86
2017-06-28T12:35:40.366Z,19.8
2017-06-28T12:36:41.620Z,19.76
2017-06-28T12:37:42.918Z,19.78
2017-06-28T12:38:44.279Z,19.79
2017-06-28T12:39:45.577Z,19.87
2017-06-28T12:40:46.945Z,19.87
2017-06-28T12:41:48.216Z,19.83
2017-06-28T12:42:49.635Z,19.86
2017-06-28T12:43:50.965Z,19.9
2017-06-28T12:44:52.270Z,20.02
2017-06-28T12:45:53.562Z,20.12
2017-06-28T12:46:54.825Z,20.1
2017-06-28T12:47:56.080Z,20.15
2017-06-28T12:48:57.337Z,20.08
2017-06-28T12:49:58.673Z,20.2
2017-06-28T12:50:59.946Z,20.21
2017-06-28T12:52:01.576Z,20.13
2017-06-28T12:53:02.886Z,20.15
2017-06-28T12:54:04.226Z,20.15
2017-06-28T12:55:05.572Z,20.13
2017-06-28T12:56:06.825Z,20.02
2017-06-28T12:57:08.142Z,20.05
2017-06-28T12:58:09.367Z,20.12
2017-06-28T12:59:10.679Z,20.15
2017-06-28T13:00:11.929Z,20.16
2017-06-28T13:01:13.237Z,20.28
2017-06-28T13:02:14.528Z,20.25
2017-06-28T13:03:15.782Z,20.12
2017-06-28T13:04:17.040Z,20.18
2017-06-28T13:05:18.363Z,20.2
2017-06-28T13:06:19.727Z,20.08
2017-06-28T13:07:21.058Z,20.2
2017-06-28T13:08:22.305Z,20.23
2017-06-28T13:09:23.548Z,20.16
2017-06-28T13:10:24.841Z,20.16
2017-06-28T13:11:26.229Z,20.16
2017-06-28T13:12:27.527Z,20.31